Bookmark and Share
Track history (hours):
 

Drifting buoy 41503

Last reported at 2014-Apr-17 14:57 UTC. Time now 2014-Apr-17 18:30 UTC.
Position N 29°33' W 067°17'.

Water temperature 23.9 ° C

NotesDate/timePositionNaut miles runAvg speedWind from/ knotsBaromVisibWave heightAir tempDewpointWater temp
2014-Apr-17 14:57N 29°33' W 067°17'2 2.2 23.9
2014-Apr-17 14:11N 29°34' W 067°18'0 1.1 23.9
2014-Apr-17 13:58N 29°34' W 067°18'0 0.3 23.9
2014-Apr-17 13:44N 29°34' W 067°18'326.8 23.9
2014-Apr-17 13:38N 29°36' W 067°21'2 4.3 23.9
2014-Apr-17 13:11N 29°34' W 067°19'2 2.1 23.9
2014-Apr-17 12:15N 29°36' W 067°21'0 0.0 23.9
2014-Apr-17 11:38N 29°36' W 067°21'0 0.8 23.9
2014-Apr-17 11:04N 29°36' W 067°21'1 2.6 23.9
2014-Apr-17 10:37N 29°35' W 067°20'2 2.5 23.9
2014-Apr-17 09:57N 29°37' W 067°21'0 0.0 23.9
2014-Apr-17 09:53N 29°37' W 067°21'0 0.0 23.9
2014-Apr-17 09:30N 29°37' W 067°21'0 0.0 24.0
2014-Apr-17 09:23N 29°37' W 067°21'1 2.9 24.0
2014-Apr-17 08:58N 29°37' W 067°22'1 1.0 24.0
2014-Apr-17 08:15N 29°38' W 067°23'0 2.2 24.0
2014-Apr-17 08:08N 29°38' W 067°23'0 1.4 24.0
2014-Apr-17 08:00N 29°38' W 067°23'0 0.0 24.0
2014-Apr-17 07:43N 29°38' W 067°23'2 1.4 24.0
2014-Apr-17 06:30N 29°40' W 067°24'0 0.0 24.0
2014-Apr-17 06:27N 29°40' W 067°24'324.9 24.0
2014-Apr-17 06:19N 29°43' W 067°25'0 0.0 24.0
2014-Apr-17 04:44N 29°43' W 067°25'0 0.0 24.0
2014-Apr-17 03:25N 29°43' W 067°25'1 1.1 24.0
2014-Apr-17 02:56N 29°43' W 067°26'0 1.1 24.0
2014-Apr-17 02:34N 29°44' W 067°26'0 2.2 24.0
2014-Apr-17 02:27N 29°44' W 067°26'2 2.6 24.0
2014-Apr-17 01:48N 29°45' W 067°27'0 0.0 24.1
2014-Apr-17 01:20N 29°45' W 067°27'0 0.7 24.1
2014-Apr-17 00:53N 29°45' W 067°27'4 4.5 24.0
2014-Apr-17 00:06N 29°48' W 067°29'0 0.0 24.0
2014-Apr-16 23:34N 29°48' W 067°29'0 0.2 24.0
2014-Apr-16 21:42N 29°49' W 067°29'2 2.0 23.9
2014-Apr-16 20:51N 29°50' W 067°30'0 0.0 23.9
2014-Apr-16 19:57N 29°50' W 067°30'146.9 23.9
2014-Apr-16 19:56N 29°50' W 067°30'0 0.0 23.9
2014-Apr-16 19:40N 29°50' W 067°30'0 1.1 23.9
2014-Apr-16 19:22N 29°50' W 067°31'2 1.5 23.9
2014-Apr-16 17:57N 29°51' W 067°33'2 1.4 23.7
2014-Apr-16 16:17N 29°53' W 067°32'1 3.9 23.6
2014-Apr-16 16:07N 29°54' W 067°32'0 0.0 23.6
2014-Apr-16 15:39N 29°54' W 067°32'0 4.8 23.6
2014-Apr-16 15:36N 29°54' W 067°32'0 1.6 23.6
2014-Apr-16 15:18N 29°53' W 067°32'2 1.5 23.6
2014-Apr-16 13:51N 29°55' W 067°34'229.2 23.5
2014-Apr-16 13:47N 29°57' W 067°35'0 0.0 23.5
2014-Apr-16 13:34N 29°57' W 067°35'0 0.0 23.4
2014-Apr-16 12:01N 29°57' W 067°35'0 0.0 23.4
2014-Apr-16 11:11N 29°57' W 067°35'0 0.5 23.4
2014-Apr-16 10:27N 29°57' W 067°35'0 0.0 23.4
2014-Apr-16 10:25N 29°57' W 067°35'1 4.7 23.4
2014-Apr-16 10:17N 29°57' W 067°35'0 0.0 23.4
2014-Apr-16 09:41N 29°57' W 067°35'0 1.2 23.4
2014-Apr-16 09:35N 29°57' W 067°35'0 2.4 23.4
2014-Apr-16 09:32N 29°57' W 067°35'116.6 23.4
2014-Apr-16 09:29N 29°58' W 067°36'0 0.5 23.4
2014-Apr-16 08:45N 29°58' W 067°35'0 3.2 23.4
2014-Apr-16 08:38N 29°58' W 067°36'1 1.0 23.4
2014-Apr-16 07:53N 29°58' W 067°37'110.4 23.4
2014-Apr-16 07:49N 29°59' W 067°37'0 0.1 23.4
2014-Apr-16 06:38N 29°59' W 067°37'1 6.9 23.5
2014-Apr-16 06:28N 30°00' W 067°37'0 0.0 23.5
2014-Apr-16 04:54N 30°00' W 067°37'1 0.6 23.5
2014-Apr-16 03:11N 30°01' W 067°38'0 0.2 23.5
2014-Apr-16 02:54N 30°01' W 067°38'0 1.7 23.5
2014-Apr-16 02:47N 30°01' W 067°38'0 0.0 23.5
2014-Apr-16 02:09N 30°01' W 067°38'1 1.3 23.5
2014-Apr-16 01:32N 30°01' W 067°39'0 0.5 23.6
2014-Apr-16 01:11N 30°01' W 067°39'0 3.7 23.6
2014-Apr-16 01:06N 30°01' W 067°39'0 0.4 23.6
2014-Apr-16 00:27N 30°01' W 067°39'0 0.0 23.6
2014-Apr-16 00:00N 30°01' W 067°39'0 0.0 23.6
2014-Apr-15 23:51N 30°01' W 067°39'1 8.8 23.6
2014-Apr-15 23:46N 30°02' W 067°39'1 0.4 23.6
2014-Apr-15 22:18N 30°03' W 067°39'0 0.0 23.6
2014-Apr-15 21:59N 30°03' W 067°39'0 0.1 23.6
2014-Apr-15 21:11N 30°03' W 067°39'0 0.4 23.6
2014-Apr-15 20:26N 30°03' W 067°39'1 1.2 23.6
2014-Apr-15 19:50N 30°03' W 067°39'1 2.2 23.5
2014-Apr-15 19:33N 30°03' W 067°39'1 5.9 23.4
2014-Apr-15 19:25N 30°03' W 067°39'0 0.0 23.4
2014-Apr-15 18:11N 30°03' W 067°39'1 0.4 23.2
2014-Apr-15 16:26N 30°04' W 067°39'0 3.7 23.1
2014-Apr-15 16:23N 30°04' W 067°39'0 0.0 23.0
2014-Apr-15 15:51N 30°04' W 067°39'0 0.0 23.0
2014-Apr-15 15:47N 30°04' W 067°39'1 7.7 23.0
2014-Apr-15 15:41N 30°05' W 067°38'0 0.0 22.9
2014-Apr-15 14:53N 30°05' W 067°38'1 0.8 22.7
2014-Apr-15 14:10N 30°05' W 067°38'0 1.0 22.5
2014-Apr-15 14:07N 30°05' W 067°38'0 3.6 22.5
2014-Apr-15 14:05N 30°05' W 067°38'0 1.1 22.5
2014-Apr-15 13:56N 30°05' W 067°38'1 1.4 22.5
2014-Apr-15 13:11N 30°06' W 067°37'0 0.5 22.5
2014-Apr-15 12:24N 30°06' W 067°37'0 0.0 22.4
2014-Apr-15 11:40N 30°06' W 067°37'1 0.6 22.4
2014-Apr-15 10:49N 30°06' W 067°36'0 1.6 22.4
2014-Apr-15 10:39N 30°07' W 067°36'0 0.0 22.4
2014-Apr-15 10:04N 30°07' W 067°36'0 0.4 22.5
2014-Apr-15 09:52N 30°07' W 067°36'0 1.4 22.5
2014-Apr-15 09:45N 30°07' W 067°37'0 3.9 22.5
2014-Apr-15 09:41N 30°07' W 067°37'0 0.0 22.5
2014-Apr-15 09:07N 30°07' W 067°37'0 3.8 22.6
2014-Apr-15 09:00N 30°07' W 067°37'0 0.0 22.6
2014-Apr-15 08:29N 30°07' W 067°37'0 2.4 22.7
2014-Apr-15 08:26N 30°08' W 067°37'0 3.7 22.7
2014-Apr-15 08:22N 30°08' W 067°37'0 0.0 22.7
2014-Apr-15 08:06N 30°08' W 067°37'0 5.7 22.7
2014-Apr-15 08:03N 30°08' W 067°37'128.1 22.7
2014-Apr-15 08:01N 30°09' W 067°37'0 0.0 22.7
2014-Apr-15 06:52N 30°09' W 067°37'0 0.0 22.6
2014-Apr-15 06:50N 30°09' W 067°37'214.4 22.6
2014-Apr-15 06:41N 30°10' W 067°39'0 0.0 22.6
2014-Apr-15 05:06N 30°10' W 067°39'1 0.6 22.6
2014-Apr-15 03:23N 30°11' W 067°40'0 6.8 22.5
2014-Apr-15 03:20N 30°11' W 067°40'0 2.2 22.5
2014-Apr-15 03:10N 30°10' W 067°40'1 0.7 22.5
2014-Apr-15 02:26N 30°11' W 067°40'1 0.8 22.4
2014-Apr-15 01:41N 30°11' W 067°40'1 5.4 22.4
2014-Apr-15 01:34N 30°11' W 067°41'1 0.7 22.4
2014-Apr-15 00:50N 30°11' W 067°40'012.7 22.4
2014-Apr-15 00:48N 30°12' W 067°40'0 0.0 22.4
2014-Apr-15 00:02N 30°12' W 067°40'0 0.0 22.4
2014-Apr-14 23:53N 30°12' W 067°40'0 0.2 22.4
2014-Apr-14 22:52N 30°12' W 067°40'1 2.0 22.6
2014-Apr-14 22:25N 30°12' W 067°39'1 0.5 22.6
2014-Apr-14 21:23N 30°12' W 067°38'0 4.8 22.7
2014-Apr-14 21:20N 30°12' W 067°39'0 2.4 22.7
2014-Apr-14 21:09N 30°12' W 067°38'0 1.5 22.7
2014-Apr-14 20:50N 30°12' W 067°38'0 0.0 22.6
2014-Apr-14 19:59N 30°12' W 067°38'1 2.0 22.5
2014-Apr-14 19:37N 30°12' W 067°37'0 0.0 22.5
2014-Apr-14 18:23N 30°12' W 067°37'0 1.6 22.5
2014-Apr-14 18:17N 30°12' W 067°37'0 1.0 22.5
2014-Apr-14 17:59N 30°12' W 067°37'0 0.0 22.5
2014-Apr-14 16:42N 30°12' W 067°37'0 0.4 22.5
2014-Apr-14 15:57N 30°11' W 067°37'0 6.1 22.6
2014-Apr-14 15:54N 30°12' W 067°37'0 0.1 22.6
2014-Apr-14 15:10N 30°12' W 067°37'0 2.6 22.6
2014-Apr-14 15:03N 30°12' W 067°37'0 0.0 22.6
2014-Apr-14 14:21N 30°12' W 067°37'0 0.0 22.7
2014-Apr-14 14:15N 30°12' W 067°37'0 4.8 22.7
2014-Apr-14 14:11N 30°12' W 067°37'0 0.0 22.7
2014-Apr-14 13:33N 30°12' W 067°37'0 0.0 22.7
2014-Apr-14 13:30N 30°12' W 067°37'1 0.5 22.7
2014-Apr-14 11:11N 30°12' W 067°38'1 0.8 22.7
2014-Apr-14 10:03N 30°13' W 067°39'0 1.3 22.8
2014-Apr-14 09:56N 30°13' W 067°39'0 8.6 22.8
2014-Apr-14 09:53N 30°13' W 067°39'0 0.0 22.8
2014-Apr-14 09:33N 30°13' W 067°39'0 3.4 22.7
2014-Apr-14 09:26N 30°13' W 067°40'0 0.0
2014-Apr-14 08:53N 30°13' W 067°40'0 1.1 22.7
2014-Apr-14 08:39N 30°13' W 067°40'0 0.9 22.5
2014-Apr-14 08:19N 30°13' W 067°40'0 3.1 22.4
2014-Apr-14 08:17N 30°13' W 067°40'1 7.4 22.4
2014-Apr-14 08:11N 30°14' W 067°41'0 0.0 22.4
2014-Apr-14 06:56N 30°14' W 067°41'112.2 22.4
2014-Apr-14 06:50N 30°15' W 067°41'0 0.0 22.4
2014-Apr-14 05:17N 30°15' W 067°41'1 0.5 22.4
2014-Apr-14 03:35N 30°16' W 067°41'0 0.2 22.3
2014-Apr-14 02:49N 30°16' W 067°41'0 0.3 22.3
2014-Apr-14 01:57N 30°16' W 067°41'0 1.6 22.4
2014-Apr-14 01:55N 30°16' W 067°41'1 1.2 22.4
2014-Apr-14 01:10N 30°16' W 067°42'0 7.8 22.4
2014-Apr-14 01:09N 30°16' W 067°42'0 2.5 22.4
2014-Apr-14 01:02N 30°15' W 067°42'0 0.0 22.4
2014-Apr-14 00:11N 30°15' W 067°42'0 7.5 22.5
2014-Apr-14 00:08N 30°15' W 067°42'0 0.0 22.5
2014-Apr-13 23:24N 30°15' W 067°42'1 1.0 22.5
2014-Apr-13 22:53N 30°15' W 067°41'1 0.9 22.6
2014-Apr-13 21:33N 30°14' W 067°42'1 4.4 22.8
2014-Apr-13 21:13N 30°13' W 067°43'0 0.2 22.8
2014-Apr-13 19:56N 30°13' W 067°44'1 0.3 23.0
2014-Apr-13 14:37N 30°14' W 067°45'0 1.0 22.3
2014-Apr-13 14:30N 30°14' W 067°45'1 7.1 22.3
2014-Apr-13 14:24N 30°15' W 067°46'0 0.1 22.3
2014-Apr-13 13:54N 30°15' W 067°46'1 5.3 22.3
2014-Apr-13 13:43N 30°15' W 067°46'0 0.0 22.3
2014-Apr-13 12:51N 30°15' W 067°46'110.5 22.3
2014-Apr-13 12:48N 30°16' W 067°46'0 0.0 22.3
2014-Apr-13 11:06N 30°16' W 067°46'0 1.6 22.3
2014-Apr-13 11:03N 30°16' W 067°46'0 0.4 22.3
2014-Apr-13 10:10N 30°16' W 067°46'0 3.6 22.3
2014-Apr-13 10:08N 30°16' W 067°46'0 9.0 22.3
2014-Apr-13 10:05N 30°16' W 067°46'0 0.0 22.3
2014-Apr-13 09:56N 30°16' W 067°46'0 2.4 22.3
2014-Apr-13 09:51N 30°16' W 067°46'0 0.3 22.3
2014-Apr-13 09:25N 30°16' W 067°46'0 0.2 22.3
2014-Apr-13 08:48N 30°16' W 067°46'0 0.4 22.3
2014-Apr-13 08:33N 30°16' W 067°46'0 0.0 22.3
2014-Apr-13 08:26N 30°16' W 067°46'0 5.7 22.3
2014-Apr-13 08:23N 30°16' W 067°46'0 0.0 22.3
2014-Apr-13 07:10N 30°16' W 067°46'0 0.0 22.3
2014-Apr-13 07:09N 30°16' W 067°46'0 3.3 22.3
2014-Apr-13 07:01N 30°16' W 067°46'0 0.0 22.3
2014-Apr-13 05:26N 30°16' W 067°46'224.5 22.4
2014-Apr-13 05:21N 30°15' W 067°48'0 0.0 22.4
2014-Apr-13 03:44N 30°15' W 067°48'0 0.0 22.3
2014-Apr-13 03:10N 30°15' W 067°48'0 0.1 22.4
2014-Apr-13 02:10N 30°15' W 067°48'0 9.5 22.3
2014-Apr-13 02:09N 30°15' W 067°48'0 2.2 22.3
2014-Apr-13 01:56N 30°15' W 067°49'0 0.1 22.3
2014-Apr-13 01:32N 30°15' W 067°49'0 0.3 22.3
2014-Apr-13 00:37N 30°15' W 067°49'0 1.1 22.3
2014-Apr-13 00:27N 30°15' W 067°49'0 0.8 22.3
2014-Apr-12 23:51N 30°15' W 067°50'1 0.3 22.3
2014-Apr-12 21:47N 30°15' W 067°50'0 0.0 22.3
2014-Apr-12 21:42N 30°15' W 067°50'0 2.4 22.3
2014-Apr-12 21:39N 30°15' W 067°51'1 0.4 22.3
2014-Apr-12 20:07N 30°15' W 067°51'0 0.7 22.5
2014-Apr-12 20:00N 30°15' W 067°51'0 0.3 22.5
2014-Apr-12 18:45N 30°15' W 067°51'1 1.4 22.6
2014-Apr-12 18:23N 30°14' W 067°52'0 0.0 22.7
2014-Apr-12 17:05N 30°14' W 067°52'0 0.3 22.6
2014-Apr-12 16:24N 30°14' W 067°52'0 0.3 22.6
2014-Apr-12 15:52N 30°14' W 067°52'0 0.5 22.6
2014-Apr-12 14:56N 30°14' W 067°52'0 2.1 22.4
2014-Apr-12 14:49N 30°14' W 067°52'0 1.2 22.4
2014-Apr-12 14:43N 30°14' W 067°52'0 6.3 22.4
2014-Apr-12 14:40N 30°14' W 067°53'0 4.3 22.4
2014-Apr-12 14:36N 30°14' W 067°53'0 0.0 22.4
2014-Apr-12 14:10N 30°14' W 067°53'1 7.1 22.4
2014-Apr-12 14:05N 30°15' W 067°53'0 0.0 22.4
2014-Apr-12 13:01N 30°15' W 067°53'0 6.3 22.4
2014-Apr-12 12:57N 30°15' W 067°53'0 0.0 22.4
2014-Apr-12 11:59N 30°15' W 067°53'1 0.4 22.3
2014-Apr-12 10:21N 30°14' W 067°53'1 7.0 22.3
2014-Apr-12 10:15N 30°15' W 067°54'0 1.2 22.3
2014-Apr-12 09:57N 30°14' W 067°54'0 0.4 22.3
2014-Apr-12 08:59N 30°15' W 067°54'0 0.0 22.3
2014-Apr-12 08:46N 30°15' W 067°54'0 1.6 22.3
2014-Apr-12 08:43N 30°15' W 067°54'0 1.6 22.3
2014-Apr-12 08:40N 30°15' W 067°54'0 1.6 22.3
2014-Apr-12 08:35N 30°14' W 067°54'0 0.4 22.3
2014-Apr-12 08:15N 30°15' W 067°54'0 0.2 22.3
2014-Apr-12 07:24N 30°14' W 067°54'0 0.0
2014-Apr-12 07:22N 30°14' W 067°54'1 7.2 22.3
2014-Apr-12 07:12N 30°16' W 067°55'0 0.0 22.3
2014-Apr-12 07:00N 30°16' W 067°55'1 0.6 22.3
2014-Apr-12 05:37N 30°15' W 067°55'1 7.4 22.3
2014-Apr-12 05:32N 30°14' W 067°55'0 0.0 22.3
2014-Apr-12 03:27N 30°14' W 067°55'0 0.0 22.3
2014-Apr-12 02:36N 30°14' W 067°55'0 2.5 22.3
2014-Apr-12 02:30N 30°14' W 067°55'0 0.0 22.3
2014-Apr-12 02:21N 30°14' W 067°55'0 0.0 22.3
2014-Apr-12 02:16N 30°14' W 067°55'1 1.4 22.3
2014-Apr-12 01:51N 30°14' W 067°55'0 3.1 22.3
2014-Apr-12 01:48N 30°14' W 067°55'1 1.1 22.3
2014-Apr-12 00:55N 30°14' W 067°56'0 0.7 22.3
2014-Apr-12 00:38N 30°13' W 067°56'0 0.6 22.3
2014-Apr-12 00:21N 30°14' W 067°56'0 1.1 22.4
2014-Apr-12 00:10N 30°13' W 067°56'1 8.6 22.3
2014-Apr-12 00:04N 30°13' W 067°57'2 0.4 22.3
2014-Apr-11 20:23N 30°12' W 067°58'1 8.7 22.6
2014-Apr-11 20:18N 30°11' W 067°58'0 0.0 22.6
2014-Apr-11 20:09N 30°11' W 067°58'0 0.0 22.6
2014-Apr-11 18:56N 30°11' W 067°58'1 1.6 22.7
2014-Apr-11 18:36N 30°11' W 067°59'113.3 22.7
2014-Apr-11 18:30N 30°10' W 067°59'0 0.0 22.7
2014-Apr-11 17:15N 30°10' W 067°59'0 0.0 22.7
2014-Apr-11 17:09N 30°10' W 067°59'1 0.8 22.7
2014-Apr-11 16:08N 30°09' W 068°00'0 0.0 22.7
2014-Apr-11 15:20N 30°09' W 068°00'0 0.5 22.7
2014-Apr-11 14:56N 30°09' W 068°00'0 4.8 22.7
2014-Apr-11 14:55N 30°09' W 068°00'1 9.5 22.7
2014-Apr-11 14:49N 30°08' W 067°59'0 0.0 22.7
2014-Apr-11 14:36N 30°08' W 067°59'1 4.2 22.8
2014-Apr-11 14:24N 30°08' W 068°00'0 0.0 22.8
2014-Apr-11 13:38N 30°08' W 068°00'1 1.5 22.9
2014-Apr-11 13:10N 30°08' W 068°01'143.2 22.8
2014-Apr-11 13:09N 30°08' W 068°00'0 0.0 22.8
2014-Apr-11 12:05N 30°08' W 068°00'1 0.6 22.8
2014-Apr-11 10:48N 30°08' W 068°01'0 0.0 22.7
2014-Apr-11 10:45N 30°08' W 068°01'0 1.8 22.7
2014-Apr-11 10:38N 30°08' W 068°01'0 6.3 22.7
2014-Apr-11 10:35N 30°08' W 068°01'0 4.8 22.7
2014-Apr-11 10:31N 30°08' W 068°01'0 2.5 22.7
2014-Apr-11 10:26N 30°08' W 068°01'0 0.3 22.7
2014-Apr-11 09:01N 30°08' W 068°02'0 0.7 22.7
2014-Apr-11 08:56N 30°08' W 068°02'0 2.9 22.7
2014-Apr-11 08:51N 30°08' W 068°02'0 4.8 22.7
2014-Apr-11 08:48N 30°08' W 068°02'1 0.4 22.7
2014-Apr-11 07:34N 30°08' W 068°02'0 1.9 22.7
2014-Apr-11 07:24N 30°08' W 068°02'0 0.0 22.7
2014-Apr-11 07:10N 30°08' W 068°02'0 7.4 22.7
2014-Apr-11 07:07N 30°08' W 068°03'0 0.0 22.7
2014-Apr-11 05:51N 30°08' W 068°03'0 2.4 22.7
2014-Apr-11 05:48N 30°08' W 068°03'1 9.0 22.7
2014-Apr-11 05:44N 30°09' W 068°03'0 0.0 22.7
2014-Apr-11 02:56N 30°09' W 068°03'0 0.0 22.7
2014-Apr-11 02:32N 30°09' W 068°03'0 1.8 22.7
2014-Apr-11 02:28N 30°09' W 068°03'0 1.1 22.7
2014-Apr-11 02:10N 30°09' W 068°03'1 0.6 22.7
2014-Apr-11 01:19N 30°10' W 068°03'0 0.0 22.7
2014-Apr-11 01:10N 30°10' W 068°03'0 0.0 22.7
2014-Apr-11 00:53N 30°10' W 068°03'0 0.9 22.7
2014-Apr-11 00:32N 30°10' W 068°03'0 9.5 22.7
2014-Apr-11 00:30N 30°10' W 068°02'0 0.0 22.7
2014-Apr-10 23:17N 30°10' W 068°02'0 0.3 22.7
2014-Apr-10 22:24N 30°10' W 068°03'1 2.3 22.9
2014-Apr-10 22:06N 30°10' W 068°03'1 1.0 22.9
2014-Apr-10 20:48N 30°09' W 068°02'141.9 23.1
2014-Apr-10 20:47N 30°09' W 068°01'0 0.0 23.1
2014-Apr-10 20:25N 30°09' W 068°01'0 6.2 23.1
2014-Apr-10 20:23N 30°09' W 068°01'1 1.0 23.1
2014-Apr-10 19:07N 30°08' W 068°00'0 0.0 23.1
2014-Apr-10 19:03N 30°08' W 068°00'1 2.1 23.1
2014-Apr-10 18:48N 30°08' W 068°01'112.0 23.1
2014-Apr-10 18:42N 30°07' W 068°01'0 0.0 23.1
2014-Apr-10 17:27N 30°07' W 068°01'210.6 23.1
2014-Apr-10 17:18N 30°05' W 068°00'0 0.0 23.1
2014-Apr-10 15:41N 30°05' W 068°00'0 0.1 23.0
2014-Apr-10 15:09N 30°05' W 068°00'011.0 23.0
2014-Apr-10 15:07N 30°05' W 067°60'0 4.1 23.0
2014-Apr-10 15:01N 30°05' W 068°00'0 0.0 23.0
2014-Apr-10 14:55N 30°05' W 068°00'1 1.4 23.0
2014-Apr-10 14:00N 30°04' W 068°00'1 1.1 23.0
2014-Apr-10 13:23N 30°03' W 068°00'0 0.0 23.0
2014-Apr-10 13:09N 30°03' W 068°00'0 0.0 22.9
2014-Apr-10 11:10N 30°03' W 068°00'0 0.0 22.9
2014-Apr-10 10:56N 30°03' W 068°00'1 4.3 22.9
2014-Apr-10 10:49N 30°03' W 068°00'1 6.0 22.9
2014-Apr-10 10:43N 30°03' W 067°60'1 0.5 22.9
2014-Apr-10 09:32N 30°03' W 068°00'0 1.5 22.8
2014-Apr-10 09:25N 30°03' W 068°00'0 1.8 22.8
2014-Apr-10 09:19N 30°03' W 068°00'0 1.0 22.8
2014-Apr-10 09:08N 30°03' W 068°00'0 0.0 22.8
2014-Apr-10 09:05N 30°03' W 068°00'1 7.5 22.8
2014-Apr-10 09:01N 30°02' W 067°60'1 0.6 22.8
2014-Apr-10 07:40N 30°02' W 068°01'1 8.9 22.7
2014-Apr-10 07:35N 30°02' W 068°02'0 0.0 22.7
2014-Apr-10 07:20N 30°02' W 068°02'1 0.8 22.7
2014-Apr-10 06:05N 30°01' W 068°02'0 2.4 22.6
2014-Apr-10 06:03N 30°01' W 068°02'217.4 22.6
2014-Apr-10 05:55N 30°01' W 068°04'0 0.0 22.6
2014-Apr-10 05:53N 30°01' W 068°04'0 0.0 22.6
2014-Apr-10 03:17N 30°01' W 068°04'0 0.0 22.4
2014-Apr-10 02:46N 30°01' W 068°04'0 0.3 22.4
2014-Apr-10 02:31N 30°01' W 068°04'1 0.7 22.4
2014-Apr-10 01:05N 30°01' W 068°06'0 1.4 22.6
2014-Apr-10 00:52N 30°01' W 068°05'0 0.0
2014-Apr-10 00:51N 30°01' W 068°05'1 1.6 22.6
2014-Apr-09 23:56N 30°03' W 068°06'1 7.7 22.6
2014-Apr-09 23:48N 30°02' W 068°05'2 2.2 22.6
2014-Apr-09 22:50N 30°03' W 068°07'0 0.6 22.7
2014-Apr-09 22:08N 30°03' W 068°07'0 0.4 22.7
2014-Apr-09 21:10N 30°03' W 068°07'1 1.6 22.8
2014-Apr-09 20:39N 30°03' W 068°06'121.9 22.8
2014-Apr-09 20:36N 30°03' W 068°08'0 0.0 22.8
2014-Apr-09 20:29N 30°03' W 068°08'0 0.0 22.8
2014-Apr-09 19:31N 30°03' W 068°08'0 0.0 22.8
2014-Apr-09 19:18N 30°03' W 068°08'0 1.4 22.8
2014-Apr-09 18:59N 30°03' W 068°08'1 0.7 22.8
2014-Apr-09 17:37N 30°02' W 068°08'1 0.7 22.9
2014-Apr-09 15:51N 30°01' W 068°09'0 0.4 22.9
2014-Apr-09 15:17N 30°01' W 068°09'123.8 22.9
2014-Apr-09 15:14N 30°01' W 068°10'0 0.0 22.9
2014-Apr-09 14:22N 30°01' W 068°10'0 0.0 22.9
2014-Apr-09 13:43N 30°01' W 068°10'0 0.0 22.9
2014-Apr-09 13:39N 30°01' W 068°10'0 0.0 22.9
2014-Apr-09 13:31N 30°01' W 068°10'1 1.3 22.9
2014-Apr-09 12:35N 29°59' W 068°11'0 0.0 22.9
2014-Apr-09 11:35N 29°59' W 068°11'1 1.0 22.9
2014-Apr-09 10:55N 29°59' W 068°11'1 0.7 22.9
2014-Apr-09 09:54N 29°58' W 068°11'0 5.9 22.9
2014-Apr-09 09:50N 29°58' W 068°11'0 0.0 22.9
2014-Apr-09 09:20N 29°58' W 068°11'0 0.0 22.9
2014-Apr-09 09:17N 29°58' W 068°11'0 0.7 22.9
2014-Apr-09 09:10N 29°58' W 068°11'113.8 22.9
2014-Apr-09 09:07N 29°57' W 068°11'0 0.0 22.9
2014-Apr-09 08:12N 29°57' W 068°11'1 2.1 22.9
2014-Apr-09 07:49N 29°57' W 068°10'0 0.0 22.9
2014-Apr-09 07:46N 29°57' W 068°10'0 0.0 22.9
2014-Apr-09 07:32N 29°57' W 068°10'1 0.4 22.9
2014-Apr-09 06:17N 29°56' W 068°11'0 1.6 22.8
2014-Apr-09 06:14N 29°56' W 068°11'1 7.9 22.8
2014-Apr-09 06:06N 29°55' W 068°11'0 0.0 22.8
2014-Apr-09 03:34N 29°55' W 068°11'1 0.9 22.8
2014-Apr-09 02:56N 29°55' W 068°10'1 5.2 22.8
2014-Apr-09 02:50N 29°55' W 068°11'1 4.5 22.8
2014-Apr-09 02:43N 29°55' W 068°10'0 0.0 22.8
2014-Apr-09 01:55N 29°55' W 068°10'1 1.5 22.8
2014-Apr-09 01:18N 29°54' W 068°11'0 0.0 22.8
2014-Apr-09 01:10N 29°54' W 068°11'111.0
2014-Apr-09 01:07N 29°54' W 068°11'0 0.0 22.8
2014-Apr-09 00:19N 29°54' W 068°11'0 5.4 22.8
2014-Apr-09 00:17N 29°54' W 068°11'0 0.0 22.8
2014-Apr-09 00:14N 29°54' W 068°11'1 1.4 22.8
2014-Apr-08 23:33N 29°53' W 068°11'0 0.0 22.8
2014-Apr-08 23:12N 29°53' W 068°11'0 0.0 22.8
2014-Apr-08 22:35N 29°53' W 068°11'1 0.9 22.8
2014-Apr-08 21:37N 29°53' W 068°10'0 0.6 22.8
2014-Apr-08 20:55N 29°52' W 068°10'0 0.0 22.7
2014-Apr-08 20:52N 29°52' W 068°10'0 0.0 22.7
2014-Apr-08 20:46N 29°52' W 068°10'0 3.8 22.7
2014-Apr-08 20:41N 29°52' W 068°10'0 0.0 22.7
2014-Apr-08 19:54N 29°52' W 068°10'014.8 22.7
2014-Apr-08 19:52N 29°52' W 068°10'0 0.0 22.7
2014-Apr-08 19:28N 29°52' W 068°10'0 0.0 22.7
2014-Apr-08 19:25N 29°52' W 068°10'0 0.3 22.7
2014-Apr-08 19:10N 29°52' W 068°10'1 0.5 22.7
2014-Apr-08 17:49N 29°51' W 068°10'1 0.5 22.7
2014-Apr-08 16:06N 29°50' W 068°09'1 0.8 22.6
2014-Apr-08 15:29N 29°51' W 068°09'1 9.0 22.6
2014-Apr-08 15:25N 29°50' W 068°09'0 0.0
2014-Apr-08 14:43N 29°50' W 068°09'1 1.3 22.5
2014-Apr-08 13:54N 29°49' W 068°08'1 4.2 22.5
2014-Apr-08 13:45N 29°49' W 068°09'0 0.0 22.5
2014-Apr-08 12:01N 29°49' W 068°09'0 7.3 22.6
2014-Apr-08 11:58N 29°49' W 068°08'1 0.7 22.6
2014-Apr-08 10:24N 29°48' W 068°08'0 0.0 22.6
2014-Apr-08 10:21N 29°48' W 068°08'0 1.6 22.6
2014-Apr-08 10:19N 29°48' W 068°08'0 4.0 22.6
2014-Apr-08 10:14N 29°48' W 068°08'1 1.0 22.6
2014-Apr-08 09:32N 29°47' W 068°09'0 3.0 22.6
2014-Apr-08 09:23N 29°47' W 068°08'0 0.3 22.6
2014-Apr-08 08:38N 29°47' W 068°08'0 0.8 22.6
2014-Apr-08 08:05N 29°47' W 068°08'0 1.6 22.5
2014-Apr-08 08:01N 29°47' W 068°08'1 2.3 22.5
2014-Apr-08 07:43N 29°46' W 068°09'1 1.2 22.5
2014-Apr-08 06:28N 29°45' W 068°08'0 1.2 22.6
2014-Apr-08 06:25N 29°45' W 068°08'317.7 22.6
2014-Apr-08 06:16N 29°43' W 068°06'0 0.0 22.6
2014-Apr-08 04:40N 29°43' W 068°06'0 0.1 22.6
2014-Apr-08 03:09N 29°43' W 068°06'1 0.9 22.6
2014-Apr-08 02:20N 29°42' W 068°06'1 8.1 22.6
2014-Apr-08 02:13N 29°42' W 068°07'0 0.1 22.6
2014-Apr-08 01:34N 29°42' W 068°07'0 1.2 22.7
2014-Apr-08 01:30N 29°42' W 068°07'0 0.2 22.7
2014-Apr-08 00:48N 29°42' W 068°07'0 0.0 22.8
2014-Apr-08 00:39N 29°42' W 068°07'1 0.9 22.8
2014-Apr-07 23:44N 29°41' W 068°07'0 0.1 22.9
2014-Apr-07 23:10N 29°41' W 068°07'1 0.5 23.0
2014-Apr-07 22:02N 29°41' W 068°08'0 0.8 23.0
2014-Apr-07 21:58N 29°41' W 068°08'0 0.1 23.0
2014-Apr-07 20:54N 29°41' W 068°08'1 1.3 23.1
2014-Apr-07 20:21N 29°40' W 068°08'0 0.1 23.2
2014-Apr-07 19:39N 29°40' W 068°09'0 0.4 23.4
2014-Apr-07 19:22N 29°40' W 068°08'1 0.6 23.3
2014-Apr-07 17:59N 29°40' W 068°09'0 1.3 23.3
2014-Apr-07 17:52N 29°40' W 068°09'0 0.2 23.4
2014-Apr-07 16:17N 29°40' W 068°09'0 0.0 23.3
2014-Apr-07 15:53N 29°40' W 068°09'1 2.2 23.4
2014-Apr-07 15:39N 29°40' W 068°10'   23.2

Dump ship's entire track history

sailing weather and tide predictions

Buoy 41503